Wetterdaten: aktuell Sonntag, 10.05.2026 12:47
Datum Zeit Temp. A. Feuchte A. Luftdruck Regen Wind Richtung Richtung Taupunkt Windchill
10.05.2026 12:47 23,1 °C 31 % 1002,8 hPa 0,0 l/m² 7,0 km/h (2 Bft) N-NW±67.5° 340 ° 5,0 °C 22,9 °C
10.05.2026 12:45 23,1 °C 31 % 1002,8 hPa 0,0 l/m² 7,0 km/h (2 Bft) N-NW±67.5° 340 ° 5,0 °C 22,9 °C
10.05.2026 12:43 23,1 °C 31 % 1002,8 hPa 0,0 l/m² 6,0 km/h (2 Bft) NW±22.5° 320 ° 5,0 °C 23,1 °C
10.05.2026 12:41 23,1 °C 32 % 1002,8 hPa 0,0 l/m² 5,8 km/h (2 Bft) NW±22.5° 310 ° 5,5 °C 23,1 °C
10.05.2026 12:39 23,1 °C 32 % 1002,8 hPa 0,0 l/m² 5,8 km/h (2 Bft) NW±22.5° 310 ° 5,5 °C 23,1 °C
10.05.2026 12:37 23,0 °C 32 % 1002,8 hPa 0,0 l/m² 0,2 km/h (0 Bft) N 355 ° 5,4 °C 23,0 °C
10.05.2026 12:35 23,1 °C 31 % 1002,8 hPa 0,0 l/m² 0,2 km/h (0 Bft) N 355 ° 5,0 °C 23,1 °C
10.05.2026 12:33 23,1 °C 31 % 1002,8 hPa 0,0 l/m² 5,2 km/h (1 Bft) N 355 ° 5,0 °C 23,1 °C
10.05.2026 12:31 23,1 °C 30 % 1002,8 hPa 0,0 l/m² 5,2 km/h (1 Bft) N 355 ° 4,6 °C 23,1 °C
10.05.2026 12:29 23,1 °C 31 % 1002,8 hPa 0,0 l/m² 5,3 km/h (1 Bft) N-NW 345 ° 5,0 °C 23,1 °C
10.05.2026 12:27 23,1 °C 31 % 1002,8 hPa 0,0 l/m² 3,4 km/h (1 Bft) N 355 ° 5,0 °C 23,1 °C
10.05.2026 12:25 23,0 °C 30 % 1002,8 hPa 0,0 l/m² 1,8 km/h (1 Bft) N 360 ° 4,5 °C 23,0 °C
10.05.2026 12:23 23,0 °C 30 % 1002,8 hPa 0,0 l/m² 1,8 km/h (1 Bft) N 360 ° 4,5 °C 23,0 °C
10.05.2026 12:21 23,0 °C 30 % 1002,8 hPa 0,0 l/m² 3,6 km/h (1 Bft) N-NO±22.5° 25 ° 4,5 °C 23,0 °C
10.05.2026 12:19 23,0 °C 32 % 1002,8 hPa 0,0 l/m² 3,5 km/h (1 Bft) O-NO 70 ° 5,4 °C 23,0 °C
10.05.2026 12:17 23,0 °C 31 % 1002,8 hPa 0,0 l/m² 3,5 km/h (1 Bft) O-NO 70 ° 5,0 °C 23,0 °C
10.05.2026 12:15 23,0 °C 31 % 1002,8 hPa 0,0 l/m² 0,8 km/h (0 Bft) O±22.5° 80 ° 5,0 °C 23,0 °C
10.05.2026 12:13 23,0 °C 31 % 1003,8 hPa 0,0 l/m² 1,2 km/h (1 Bft) NO±45° 40 ° 5,0 °C 23,0 °C
10.05.2026 12:11 22,9 °C 32 % 1003,9 hPa 0,0 l/m² 3,4 km/h (1 Bft) N 355 ° 5,3 °C 22,9 °C
10.05.2026 12:08 22,9 °C 32 % 1003,9 hPa 0,0 l/m² 3,4 km/h (1 Bft) N 355 ° 5,3 °C 22,9 °C
10.05.2026 12:06 22,9 °C 32 % 1003,9 hPa 0,0 l/m² 4,4 km/h (1 Bft) N 355 ° 5,3 °C 22,9 °C
10.05.2026 12:05 22,7 °C 32 % 1003,9 hPa 0,0 l/m² 3,9 km/h (1 Bft) N 355 ° 5,2 °C 22,7 °C
10.05.2026 12:03 22,6 °C 33 % 1003,9 hPa 0,0 l/m² 1,0 km/h (0 Bft) N 355 ° 5,5 °C 22,6 °C
10.05.2026 12:01 22,6 °C 33 % 1003,9 hPa 0,0 l/m² 1,0 km/h (0 Bft) N 355 ° 5,5 °C 22,6 °C
10.05.2026 11:59 22,4 °C 34 % 1003,9 hPa 0,0 l/m² 5,4 km/h (1 Bft) N 355 ° 5,8 °C 22,4 °C
10.05.2026 11:57 22,4 °C 34 % 1003,9 hPa 0,0 l/m² 0,6 km/h (0 Bft) N 355 ° 5,8 °C 22,4 °C
10.05.2026 11:55 22,4 °C 34 % 1003,9 hPa 0,0 l/m² 0,6 km/h (0 Bft) N 355 ° 5,8 °C 22,4 °C
10.05.2026 11:53 22,2 °C 34 % 1003,9 hPa 0,0 l/m² 3,2 km/h (1 Bft) N 355 ° 5,6 °C 22,2 °C
10.05.2026 11:51 22,0 °C 34 % 1003,9 hPa 0,0 l/m² 0,2 km/h (0 Bft) N 355 ° 5,4 °C 22,0 °C
10.05.2026 11:49 22,0 °C 34 % 1003,9 hPa 0,0 l/m² 0,3 km/h (0 Bft) N 355 ° 5,4 °C 22,0 °C
10.05.2026 11:47 21,9 °C 34 % 1003,9 hPa 0,0 l/m² 0,3 km/h (0 Bft) N 355 ° 5,3 °C 21,9 °C
10.05.2026 11:45 21,9 °C 34 % 1003,9 hPa 0,0 l/m² 1,1 km/h (1 Bft) N 355 ° 5,3 °C 21,9 °C
10.05.2026 11:43 21,9 °C 34 % 1003,9 hPa 0,0 l/m² 0,9 km/h (0 Bft) N 355 ° 5,3 °C 21,9 °C
10.05.2026 11:41 21,9 °C 35 % 1003,9 hPa 0,0 l/m² 1,6 km/h (1 Bft) N 355 ° 5,7 °C 21,9 °C
10.05.2026 11:39 21,7 °C 34 % 1003,9 hPa 0,0 l/m² 1,6 km/h (1 Bft) N 355 ° 5,2 °C 21,7 °C
10.05.2026 11:37 21,7 °C 34 % 1003,9 hPa 0,0 l/m² 1,6 km/h (1 Bft) N 355 ° 5,2 °C 21,7 °C
10.05.2026 11:35 21,6 °C 33 % 1003,9 hPa 0,0 l/m² 4,0 km/h (1 Bft) N 355 ° 4,6 °C 21,6 °C
10.05.2026 11:33 21,4 °C 33 % 1003,9 hPa 0,0 l/m² 4,0 km/h (1 Bft) N 355 ° 4,5 °C 21,4 °C
10.05.2026 11:31 21,4 °C 33 % 1003,9 hPa 0,0 l/m² 5,0 km/h (1 Bft) NO±45° 45 ° 4,5 °C 21,4 °C
10.05.2026 11:28 21,6 °C 35 % 1003,9 hPa 0,0 l/m² 4,5 km/h (1 Bft) N-NO±45° 25 ° 5,5 °C 21,6 °C
10.05.2026 11:26 21,6 °C 35 % 1003,9 hPa 0,0 l/m² 3,5 km/h (1 Bft) N-NW 340 ° 5,5 °C 21,6 °C
_ Min-Zeit 06:17 12:21 12:27 - 00:01 - - 11:31 06:17
Minimum _ 11,5 °C 30 % 1002,8 hPa - 0,0 km/h (0 Bft) - - 4,5 °C 11,5 °C
_ Max-Zeit 12:27 06:31 00:39 00:01 10:57 - - 07:47 12:27
Maximum _ 23,1 °C 74 % 1008,2 hPa 0,0 l/m² 8,9 km/h
N (2 Bft)
- - 7,4 °C 23,1 °C
Durchschnitt _ 15,2 °C 58 % 1005,9 hPa #0,0 l/m² 1,3 km/h (1 Bft) N - 6,4 °C 15,1 °C